Time;durP1;ratioP1;P1;durP2;ratioP2;P2;SDS_P1;SDS_P2;PMS_P1;PMS_P2;Temp;Humidity;BMP_temperature;BMP_pressure;BME280_temperature;BME280_humidity;BME280_pressure;Samples;Min_cycle;Max_cycle;Signal;HPM_P1;HPM_P2
2022/10/08 00:00:05;;;;;;;7.67;1.70;;;13.30;99.90;;;;;;5073312;28;20082;-68
2022/10/08 00:02:31;;;;;;;7.67;2.40;;;13.30;99.90;;;;;;5073746;28;20282;-68
2022/10/08 00:04:56;;;;;;;8.50;2.20;;;13.30;99.90;;;;;;5073457;28;20275;-72
2022/10/08 00:07:23;;;;;;;9.20;1.83;;;13.30;99.90;;;;;;5073734;28;20489;-68
2022/10/08 00:09:49;;;;;;;6.00;1.73;;;13.30;99.90;;;;;;5073249;28;20048;-68
2022/10/08 00:12:14;;;;;;;8.37;1.67;;;13.30;99.90;;;;;;5073080;28;20286;-68
2022/10/08 00:14:40;;;;;;;7.00;2.07;;;13.30;99.90;;;;;;5073311;28;20055;-68
2022/10/08 00:17:06;;;;;;;6.97;1.87;;;13.30;99.90;;;;;;5073090;28;20041;-68
2022/10/08 00:19:31;;;;;;;7.47;2.10;;;13.30;99.90;;;;;;5055856;28;20484;-68
2022/10/08 00:21:57;;;;;;;8.73;2.27;;;13.20;99.90;;;;;;5073181;28;20461;-68
2022/10/08 00:24:23;;;;;;;7.13;2.33;;;13.20;99.90;;;;;;5054949;28;20056;-68
2022/10/08 00:26:50;;;;;;;5.03;1.97;;;13.30;99.90;;;;;;5073186;28;20106;-68
2022/10/08 00:29:17;;;;;;;7.97;2.03;;;13.30;99.90;;;;;;5072808;28;20044;-68
2022/10/08 00:31:46;;;;;;;6.97;2.40;;;13.20;99.90;;;;;;5073152;28;20290;-68
2022/10/08 00:34:15;;;;;;;6.97;2.40;;;13.20;99.90;;;;;;5073211;28;20364;-68
2022/10/08 00:36:40;;;;;;;7.57;2.53;;;13.20;99.90;;;;;;5073019;28;20286;-68
2022/10/08 00:39:10;;;;;;;6.70;2.00;;;13.20;99.90;;;;;;5072842;28;20600;-68
2022/10/08 00:41:37;;;;;;;7.70;2.03;;;13.20;99.90;;;;;;5073062;28;20051;-68
2022/10/08 00:44:41;;;;;;;6.90;2.10;;;13.20;99.90;;;;;;5072683;28;20286;-69
2022/10/08 00:47:36;;;;;;;11.27;2.27;;;13.20;99.90;;;;;;5072484;28;20322;-68
2022/10/08 00:50:13;;;;;;;5.75;1.65;;;13.20;99.90;;;;;;5061638;28;20310;-71
2022/10/08 00:53:00;;;;;;;7.50;1.90;;;13.20;99.90;;;;;;5073115;28;20471;-68
2022/10/08 00:55:28;;;;;;;8.23;2.13;;;13.10;99.90;;;;;;5054951;28;20639;-68
2022/10/08 00:57:57;;;;;;;10.70;2.20;;;13.10;99.90;;;;;;5072965;28;20279;-68
2022/10/08 01:00:24;;;;;;;8.37;1.70;;;13.10;99.90;;;;;;5072483;28;20287;-68
2022/10/08 01:02:50;;;;;;;6.50;1.90;;;13.10;99.90;;;;;;5072817;28;20366;-68
2022/10/08 01:05:23;;;;;;;7.87;2.17;;;13.10;99.90;;;;;;5072576;28;20278;-67
2022/10/08 01:08:21;;;;;;;9.23;1.70;;;13.10;99.90;;;;;;5054917;28;20275;-67
2022/10/08 01:11:07;;;;;;;5.67;1.77;;;13.20;99.90;;;;;;4985861;28;20694;-68
2022/10/08 01:13:51;;;;;;;4.90;1.50;;;13.10;99.90;;;;;;5072816;28;20697;-67
2022/10/08 01:16:31;;;;;;;8.83;1.50;;;13.10;99.90;;;;;;5071954;28;20754;-67
2022/10/08 01:19:04;;;;;;;4.20;1.43;;;13.10;99.90;;;;;;5072689;28;20270;-67
2022/10/08 01:21:46;;;;;;;9.57;1.80;;;13.10;99.90;;;;;;5072429;28;20301;-67
2022/10/08 01:24:14;;;;;;;6.23;1.67;;;13.20;99.90;;;;;;5072297;28;20843;-67
2022/10/08 01:27:02;;;;;;;8.43;1.73;;;13.10;99.90;;;;;;5072517;28;20759;-67
2022/10/08 01:29:55;;;;;;;7.33;1.90;;;13.20;99.90;;;;;;5072191;28;20294;-67
2022/10/08 01:32:28;;;;;;;6.20;1.60;;;13.10;99.90;;;;;;5068040;28;20297;-67
2022/10/08 01:35:05;;;;;;;7.03;1.60;;;13.10;99.90;;;;;;5072529;28;20778;-67
2022/10/08 01:37:37;;;;;;;4.63;1.47;;;13.10;99.90;;;;;;5054583;28;20279;-67
2022/10/08 01:40:17;;;;;;;6.23;1.83;;;13.10;99.90;;;;;;5072354;28;20353;-67
2022/10/08 01:42:46;;;;;;;7.83;1.90;;;13.10;99.90;;;;;;5072363;28;20362;-67
2022/10/08 01:45:16;;;;;;;5.93;1.70;;;13.00;99.90;;;;;;5072059;28;20279;-68
2022/10/08 01:47:44;;;;;;;11.07;2.30;;;13.00;99.90;;;;;;5072335;28;20348;-67
2022/10/08 01:50:18;;;;;;;8.87;1.97;;;13.00;99.90;;;;;;5071901;28;20368;-68
2022/10/08 01:52:50;;;;;;;8.63;1.90;;;13.00;99.90;;;;;;5072630;28;20643;-67
2022/10/08 01:55:22;;;;;;;7.73;2.03;;;12.90;99.90;;;;;;5072023;28;20271;-67
2022/10/08 01:57:49;;;;;;;8.07;1.87;;;12.90;99.90;;;;;;5072487;28;20272;-67
2022/10/08 02:00:16;;;;;;;8.17;2.20;;;12.90;99.90;;;;;;5071931;28;20275;-67
2022/10/08 02:02:42;;;;;;;12.43;2.00;;;12.80;99.90;;;;;;5073330;28;20723;-67
2022/10/08 02:05:10;;;;;;;13.97;2.30;;;12.80;99.90;;;;;;5075972;28;20267;-67
2022/10/08 02:07:40;;;;;;;12.70;2.00;;;12.80;99.90;;;;;;5075672;28;20278;-67
2022/10/08 02:10:14;;;;;;;10.30;1.70;;;12.70;99.90;;;;;;5075788;28;20329;-67
2022/10/08 02:12:42;;;;;;;9.80;1.85;;;12.70;99.90;;;;;;5058223;28;20328;-67
2022/10/08 02:15:14;;;;;;;10.73;2.10;;;12.70;99.90;;;;;;5075669;28;20056;-67
2022/10/08 02:17:56;;;;;;;13.07;2.23;;;12.70;99.90;;;;;;5075765;28;20619;-67
2022/10/08 02:20:36;;;;;;;10.40;2.10;;;12.60;99.90;;;;;;5057804;28;20428;-67
2022/10/08 02:23:33;;;;;;;12.93;2.03;;;12.60;99.90;;;;;;5057693;28;20287;-67
2022/10/08 02:26:09;;;;;;;14.20;2.20;;;12.60;99.90;;;;;;5074637;28;20287;-67
2022/10/08 02:28:42;;;;;;;15.27;2.40;;;12.60;99.90;;;;;;5075111;28;20367;-67
2022/10/08 02:31:34;;;;;;;7.80;1.97;;;12.60;99.90;;;;;;5075364;28;20287;-67
2022/10/08 02:34:11;;;;;;;8.73;2.10;;;12.60;99.90;;;;;;5075463;28;20275;-67
2022/10/08 02:36:40;;;;;;;10.67;1.80;;;12.60;99.90;;;;;;5075053;28;20283;-67
2022/10/08 02:39:08;;;;;;;9.83;2.00;;;12.50;99.90;;;;;;5075222;28;20275;-68
2022/10/08 02:41:39;;;;;;;11.30;1.70;;;12.50;99.90;;;;;;5074901;28;20361;-67
2022/10/08 02:44:11;;;;;;;9.20;2.20;;;12.40;99.90;;;;;;5075289;28;20275;-67
2022/10/08 02:46:41;;;;;;;9.73;2.17;;;12.50;99.90;;;;;;5074891;28;20282;-67
2022/10/08 02:49:15;;;;;;;11.63;2.63;;;12.50;99.90;;;;;;5075231;28;20342;-67
2022/10/08 02:51:48;;;;;;;11.77;2.40;;;12.50;99.90;;;;;;5074717;28;20743;-67
2022/10/08 02:54:17;;;;;;;12.60;2.40;;;12.50;99.90;;;;;;5075036;28;20044;-67
2022/10/08 02:56:50;;;;;;;9.37;2.23;;;12.50;99.90;;;;;;5075165;28;20627;-67
2022/10/08 02:59:18;;;;;;;11.77;2.43;;;12.50;99.90;;;;;;5075010;28;20282;-67
2022/10/08 03:01:49;;;;;;;9.17;2.17;;;12.50;99.90;;;;;;5074810;28;20290;-67
2022/10/08 03:04:21;;;;;;;10.10;2.37;;;12.50;99.90;;;;;;5074812;28;20328;-67
2022/10/08 03:06:48;;;;;;;15.27;3.17;;;12.50;99.90;;;;;;5074884;28;20348;-67
2022/10/08 03:09:16;;;;;;;11.43;2.00;;;12.50;99.90;;;;;;5074683;28;20322;-67
2022/10/08 03:11:43;;;;;;;11.93;2.33;;;12.50;99.90;;;;;;5074266;28;20287;-67
2022/10/08 03:14:11;;;;;;;13.33;3.03;;;12.50;99.90;;;;;;5073489;28;20325;-67
2022/10/08 03:16:43;;;;;;;14.27;3.17;;;12.60;99.90;;;;;;5056393;28;20287;-67
2022/10/08 03:19:11;;;;;;;12.97;2.93;;;12.50;99.90;;;;;;5074402;28;20303;-67
2022/10/08 03:21:39;;;;;;;14.03;2.53;;;12.50;99.90;;;;;;5056506;28;20282;-67
2022/10/08 03:24:09;;;;;;;12.67;2.37;;;12.50;99.90;;;;;;5074029;28;20294;-67
2022/10/08 03:26:35;;;;;;;12.27;2.33;;;12.50;99.90;;;;;;5074147;28;20275;-67
2022/10/08 03:29:02;;;;;;;9.17;2.17;;;12.50;99.90;;;;;;5074174;28;20291;-67
2022/10/08 03:31:27;;;;;;;7.93;2.43;;;12.50;99.90;;;;;;5073916;28;20287;-67
2022/10/08 03:33:54;;;;;;;8.37;2.10;;;12.50;99.90;;;;;;5056391;28;20301;-67
2022/10/08 03:36:21;;;;;;;15.17;3.53;;;12.50;99.90;;;;;;5074050;28;20048;-67
2022/10/08 03:38:47;;;;;;;9.23;2.10;;;12.50;99.90;;;;;;5074052;28;20330;-67
2022/10/08 03:41:13;;;;;;;12.73;2.20;;;12.50;99.90;;;;;;5073974;28;20298;-67
2022/10/08 03:43:39;;;;;;;11.17;2.23;;;12.40;99.90;;;;;;5056041;28;20291;-67
2022/10/08 03:46:07;;;;;;;9.27;2.27;;;12.40;99.90;;;;;;5073987;28;20463;-67
2022/10/08 03:48:33;;;;;;;14.60;3.17;;;12.40;99.90;;;;;;5073195;28;20651;-67
2022/10/08 03:51:08;;;;;;;9.70;2.43;;;12.30;99.90;;;;;;5073809;28;20283;-67
2022/10/08 03:53:37;;;;;;;10.90;2.40;;;12.30;99.90;;;;;;5073902;28;20279;-67
2022/10/08 03:56:04;;;;;;;10.10;2.10;;;12.30;99.90;;;;;;5073672;28;20370;-67
2022/10/08 03:58:30;;;;;;;16.37;2.90;;;12.20;99.90;;;;;;5073713;28;20639;-67
2022/10/08 04:01:02;;;;;;;12.13;2.10;;;12.10;99.90;;;;;;5073612;28;20693;-67
2022/10/08 04:03:28;;;;;;;7.67;2.53;;;12.10;99.90;;;;;;5073231;28;20357;-67
2022/10/08 04:05:54;;;;;;;13.13;2.40;;;12.10;99.90;;;;;;5073479;28;20365;-67
2022/10/08 04:08:20;;;;;;;12.37;2.30;;;12.10;99.90;;;;;;5055727;28;20386;-67
2022/10/08 04:10:46;;;;;;;11.63;2.10;;;12.00;99.90;;;;;;5072766;28;20793;-67
2022/10/08 04:13:12;;;;;;;12.03;2.07;;;12.00;99.90;;;;;;5073531;28;20322;-67
2022/10/08 04:15:38;;;;;;;11.53;2.57;;;12.00;99.90;;;;;;5055032;28;20059;-67
2022/10/08 04:18:06;;;;;;;9.33;2.33;;;12.00;99.90;;;;;;5073551;28;20278;-67
2022/10/08 04:20:32;;;;;;;12.50;2.23;;;11.90;99.90;;;;;;5073033;28;20185;-67
2022/10/08 04:22:57;;;;;;;8.37;2.20;;;11.90;99.90;;;;;;5073228;28;20370;-67
2022/10/08 04:25:23;;;;;;;10.50;2.13;;;11.90;99.90;;;;;;5073032;28;20365;-67
2022/10/08 04:27:49;;;;;;;9.80;2.43;;;11.80;99.90;;;;;;5072622;28;20182;-67
2022/10/08 04:30:15;;;;;;;10.57;2.07;;;11.90;99.90;;;;;;5073064;28;20040;-67
2022/10/08 04:32:42;;;;;;;8.83;2.30;;;11.80;99.90;;;;;;5073208;28;20079;-67
2022/10/08 04:35:08;;;;;;;14.13;2.70;;;11.80;99.90;;;;;;5055635;28;20293;-67
2022/10/08 04:37:34;;;;;;;11.60;2.37;;;11.70;99.90;;;;;;5072796;28;20283;-68
2022/10/08 04:39:59;;;;;;;17.13;2.37;;;11.70;99.90;;;;;;5073110;28;20281;-67
2022/10/08 04:42:25;;;;;;;13.77;2.43;;;11.60;99.90;;;;;;5073065;28;20455;-67
2022/10/08 04:44:51;;;;;;;19.60;2.83;;;11.60;99.90;;;;;;5072737;28;20126;-67
2022/10/08 04:47:17;;;;;;;11.47;2.50;;;11.60;99.90;;;;;;5073105;28;20091;-67
2022/10/08 04:49:43;;;;;;;10.67;2.50;;;11.60;99.90;;;;;;5054674;28;20473;-67
2022/10/08 04:52:08;;;;;;;9.97;2.30;;;11.60;99.90;;;;;;5055105;28;20291;-67
2022/10/08 04:54:34;;;;;;;14.13;2.40;;;11.60;99.90;;;;;;5054978;28;20044;-68
2022/10/08 04:57:00;;;;;;;14.33;2.67;;;11.50;99.90;;;;;;5054958;28;20121;-67
2022/10/08 04:59:26;;;;;;;13.60;2.30;;;11.50;99.90;;;;;;5072883;28;20037;-67
2022/10/08 05:01:55;;;;;;;15.60;2.80;;;11.50;99.90;;;;;;5072568;28;20099;-67
2022/10/08 05:04:21;;;;;;;13.20;2.50;;;11.50;99.90;;;;;;5055128;28;20453;-67
2022/10/08 05:06:48;;;;;;;11.80;2.30;;;11.50;99.90;;;;;;5072507;28;20278;-67
2022/10/08 05:09:13;;;;;;;10.87;2.43;;;11.50;99.90;;;;;;5072570;28;20309;-67
2022/10/08 05:11:39;;;;;;;13.47;2.60;;;11.50;99.90;;;;;;5072047;28;20278;-67
2022/10/08 05:14:05;;;;;;;16.10;2.70;;;11.40;99.90;;;;;;5072632;28;20105;-67
2022/10/08 05:16:31;;;;;;;10.43;2.13;;;11.40;99.90;;;;;;5054973;28;20071;-67
2022/10/08 05:18:57;;;;;;;9.87;2.47;;;11.50;99.90;;;;;;5072671;28;20119;-67
2022/10/08 05:21:26;;;;;;;10.23;2.13;;;11.40;99.90;;;;;;5072696;28;20754;-67
2022/10/08 05:23:57;;;;;;;12.40;2.67;;;11.40;99.90;;;;;;5054298;28;20056;-67
2022/10/08 05:26:26;;;;;;;11.40;2.13;;;11.40;99.90;;;;;;5072660;28;20302;-67
2022/10/08 05:28:56;;;;;;;14.60;2.80;;;11.40;99.90;;;;;;5071848;28;20389;-67
2022/10/08 05:31:24;;;;;;;12.57;3.10;;;11.40;99.90;;;;;;5055000;28;20624;-68
2022/10/08 05:33:50;;;;;;;8.50;2.10;;;11.40;99.90;;;;;;5072164;28;20279;-67
2022/10/08 05:36:19;;;;;;;12.37;2.63;;;11.40;99.90;;;;;;5072502;28;20672;-67
2022/10/08 05:38:44;;;;;;;15.73;2.67;;;11.30;99.90;;;;;;5074832;28;20787;-67
2022/10/08 05:41:13;;;;;;;13.23;2.63;;;11.30;99.90;;;;;;5076284;28;20283;-67
2022/10/08 05:43:39;;;;;;;12.00;2.40;;;11.40;99.90;;;;;;5076012;28;20050;-68
2022/10/08 05:46:05;;;;;;;13.00;2.67;;;11.40;99.90;;;;;;5076128;28;20322;-67
2022/10/08 05:48:32;;;;;;;11.30;2.80;;;11.40;99.90;;;;;;5076126;28;20299;-67
2022/10/08 05:51:04;;;;;;;12.20;2.20;;;11.30;99.90;;;;;;5075880;28;20374;-67
2022/10/08 05:53:30;;;;;;;11.67;2.17;;;11.40;99.90;;;;;;5076144;28;20283;-67
2022/10/08 05:56:04;;;;;;;14.87;3.40;;;11.30;99.90;;;;;;5075771;28;21211;-67
2022/10/08 05:58:30;;;;;;;17.90;2.80;;;11.30;99.90;;;;;;5075995;28;20060;-67
2022/10/08 06:01:01;;;;;;;9.90;2.00;;;11.30;99.90;;;;;;5057953;28;20087;-68
2022/10/08 06:03:27;;;;;;;15.10;2.23;;;11.30;99.90;;;;;;5075966;28;20275;-67
2022/10/08 06:05:53;;;;;;;11.63;2.50;;;11.30;99.90;;;;;;5075594;28;20283;-67
2022/10/08 06:08:20;;;;;;;11.33;2.00;;;11.30;99.90;;;;;;5075906;28;20282;-67
2022/10/08 06:10:52;;;;;;;14.67;3.10;;;11.30;99.90;;;;;;5075342;28;20283;-68
2022/10/08 06:13:19;;;;;;;14.23;2.63;;;11.30;99.90;;;;;;5075933;28;20277;-67
2022/10/08 06:16:03;;;;;;;11.83;2.27;;;11.30;99.90;;;;;;5075314;28;20283;-67
2022/10/08 06:18:36;;;;;;;15.00;2.67;;;11.30;99.90;;;;;;5075129;28;20270;-67
2022/10/08 06:21:11;;;;;;;17.43;2.60;;;11.40;99.90;;;;;;5075296;28;20679;-67
2022/10/08 06:23:37;;;;;;;;;;;11.30;99.90;;;;;;5057814;28;20298;-67
2022/10/08 06:26:05;;;;;;;17.10;3.33;;;11.40;99.90;;;;;;5075183;28;19921;-67
2022/10/08 06:28:32;;;;;;;14.70;3.73;;;11.50;99.90;;;;;;5057540;28;20310;-67
2022/10/08 06:30:58;;;;;;;11.57;2.73;;;11.60;99.90;;;;;;5075184;28;20329;-67
2022/10/08 06:33:24;;;;;;;11.93;2.13;;;11.60;99.90;;;;;;5075365;28;20775;-67
2022/10/08 06:35:49;;;;;;;12.47;2.50;;;11.60;99.90;;;;;;5075009;28;20093;-67
2022/10/08 06:38:15;;;;;;;14.57;2.30;;;11.60;99.90;;;;;;5075426;28;20132;-67
2022/10/08 06:40:41;;;;;;;11.63;2.10;;;11.70;99.90;;;;;;5057498;28;20056;-72
2022/10/08 06:43:18;;;;;;;10.00;2.23;;;11.60;99.90;;;;;;5075184;28;20052;-67
2022/10/08 06:45:45;;;;;;;12.43;2.50;;;11.60;99.90;;;;;;5075096;28;20072;-67
2022/10/08 06:48:12;;;;;;;13.20;2.47;;;11.60;99.90;;;;;;5075126;28;20279;-67
2022/10/08 06:50:38;;;;;;;12.53;2.20;;;11.60;99.90;;;;;;5075012;28;20279;-68
2022/10/08 06:53:06;;;;;;;10.97;1.97;;;11.70;99.90;;;;;;5057086;28;20287;-67
2022/10/08 06:55:33;;;;;;;11.37;2.10;;;11.60;99.90;;;;;;5074628;28;20290;-68
2022/10/08 06:57:59;;;;;;;14.47;2.53;;;11.70;99.90;;;;;;5056769;28;20279;-68
2022/10/08 07:00:25;;;;;;;14.57;2.50;;;11.70;99.90;;;;;;5074840;28;20300;-68
2022/10/08 07:02:51;;;;;;;12.13;2.50;;;11.80;99.90;;;;;;5056949;28;20106;-68
2022/10/08 07:05:17;;;;;;;12.07;2.07;;;11.80;99.90;;;;;;5074638;28;20662;-68
2022/10/08 07:07:43;;;;;;;12.47;2.73;;;11.80;99.90;;;;;;5056752;28;20088;-68
2022/10/08 07:10:09;;;;;;;15.67;2.50;;;11.90;99.90;;;;;;5074100;28;20335;-68
2022/10/08 07:12:35;;;;;;;15.07;2.37;;;11.90;99.90;;;;;;5074735;28;20131;-68
2022/10/08 07:15:00;;;;;;;15.57;2.33;;;12.00;99.90;;;;;;5056505;28;20366;-68
2022/10/08 07:17:27;;;;;;;15.80;2.30;;;12.00;99.90;;;;;;5056943;28;20078;-67
2022/10/08 07:19:54;;;;;;;11.50;2.23;;;12.00;99.90;;;;;;5056517;28;20445;-68
2022/10/08 07:22:20;;;;;;;11.47;2.57;;;12.10;99.90;;;;;;5056801;28;20366;-67
2022/10/08 07:24:45;;;;;;;15.43;2.57;;;12.20;99.90;;;;;;5056362;28;20375;-65
2022/10/08 07:27:12;;;;;;;10.27;2.20;;;12.30;99.90;;;;;;5073917;28;20503;-76
2022/10/08 07:29:37;;;;;;;14.40;2.70;;;12.40;99.90;;;;;;5074226;28;20098;-68
2022/10/08 07:32:03;;;;;;;11.57;2.40;;;12.30;99.90;;;;;;5074048;28;20282;-68
2022/10/08 07:34:28;;;;;;;14.80;2.53;;;12.30;99.90;;;;;;5074297;28;20045;-68
2022/10/08 07:36:54;;;;;;;8.60;2.23;;;12.30;99.90;;;;;;5073982;28;20111;-68
2022/10/08 07:39:20;;;;;;;14.93;2.30;;;12.30;99.90;;;;;;5074231;28;20081;-67
2022/10/08 07:41:48;;;;;;;12.30;2.30;;;12.30;99.90;;;;;;5074145;28;20052;-67
2022/10/08 07:44:15;;;;;;;12.50;2.70;;;12.30;99.90;;;;;;5073950;28;20293;-69
2022/10/08 07:46:46;;;;;;;10.73;2.00;;;12.40;99.90;;;;;;5073987;28;20364;-71
2022/10/08 07:49:13;;;;;;;11.07;2.00;;;12.50;99.90;;;;;;5055568;28;20384;-68
2022/10/08 07:51:40;;;;;;;8.70;2.00;;;12.60;99.90;;;;;;5056286;28;20291;-68
2022/10/08 07:54:09;;;;;;;9.70;2.07;;;12.70;99.90;;;;;;5073604;28;20283;-68
2022/10/08 07:56:35;;;;;;;13.37;2.43;;;12.80;99.90;;;;;;5073804;28;20290;-71
2022/10/08 07:59:02;;;;;;;11.73;3.07;;;12.90;99.90;;;;;;5073467;28;20283;-69
2022/10/08 08:01:29;;;;;;;11.97;2.17;;;12.90;99.90;;;;;;5073127;28;20287;-69
2022/10/08 08:04:00;;;;;;;8.70;2.03;;;13.00;99.90;;;;;;5070325;28;20287;-69
2022/10/08 08:06:26;;;;;;;15.93;2.20;;;13.00;99.90;;;;;;5035224;28;20771;-69
2022/10/08 08:08:53;;;;;;;6.97;1.60;;;13.20;99.90;;;;;;5033847;28;20315;-69
2022/10/08 08:11:21;;;;;;;8.93;1.97;;;13.20;99.90;;;;;;5053682;28;20482;-68
2022/10/08 08:13:47;;;;;;;11.63;2.10;;;13.30;99.90;;;;;;5053642;28;20285;-68
2022/10/08 08:16:16;;;;;;;11.80;1.70;;;13.30;99.90;;;;;;5035766;28;20378;-68
2022/10/08 08:18:47;;;;;;;13.37;2.73;;;13.30;99.90;;;;;;5053444;28;20129;-68
2022/10/08 08:21:22;;;;;;;14.30;2.00;;;13.40;99.90;;;;;;5035315;28;20279;-68
2022/10/08 08:23:50;;;;;;;9.02;1.85;;;13.30;99.90;;;;;;5019292;28;20300;-68
2022/10/08 08:26:21;;;;;;;14.37;2.67;;;13.30;99.90;;;;;;5053237;28;20052;-68
2022/10/08 08:28:58;;;;;;;10.40;1.87;;;13.40;99.90;;;;;;5035740;28;20383;-68
2022/10/08 08:31:36;;;;;;;8.67;1.93;;;13.40;99.90;;;;;;5035825;28;20296;-68
2022/10/08 08:34:07;;;;;;;12.57;2.17;;;13.40;99.90;;;;;;5035204;28;20283;-68
2022/10/08 08:36:36;;;;;;;7.90;1.67;;;13.50;99.90;;;;;;5053330;28;20342;-68
2022/10/08 08:39:02;;;;;;;10.77;1.53;;;13.70;99.90;;;;;;5053058;28;20271;-68
2022/10/08 08:42:05;;;;;;;7.13;1.57;;;13.80;99.90;;;;;;5053503;28;20318;-68
2022/10/08 08:44:39;;;;;;;4.33;1.10;;;14.00;99.90;;;;;;5053206;28;20292;-68
2022/10/08 08:47:05;;;;;;;7.65;1.20;;;14.00;99.90;;;;;;5053143;28;20284;-68
2022/10/08 08:49:34;;;;;;;7.50;1.20;;;14.10;99.90;;;;;;5052743;28;20485;-68
2022/10/08 08:52:02;;;;;;;5.87;1.00;;;14.00;99.90;;;;;;5052863;28;20045;-68
2022/10/08 08:54:28;;;;;;;8.90;1.73;;;13.90;99.90;;;;;;5053305;28;20283;-68
2022/10/08 08:56:54;;;;;;;6.93;1.20;;;13.90;99.90;;;;;;5053004;28;20597;-68
2022/10/08 08:59:32;;;;;;;7.97;1.20;;;13.80;99.90;;;;;;5052745;28;20048;-68
2022/10/08 09:02:04;;;;;;;12.90;1.87;;;13.80;99.90;;;;;;5052922;28;20283;-69
2022/10/08 09:04:46;;;;;;;10.73;1.70;;;13.70;99.90;;;;;;5053022;28;20267;-68
2022/10/08 09:07:18;;;;;;;7.20;1.40;;;13.70;99.90;;;;;;5053093;28;20283;-68
2022/10/08 09:09:47;;;;;;;11.70;2.17;;;13.60;99.90;;;;;;5053051;28;20690;-68
2022/10/08 09:12:18;;;;;;;12.10;1.50;;;13.60;99.90;;;;;;5053136;28;20321;-68
2022/10/08 09:14:53;;;;;;;10.83;1.90;;;13.70;99.90;;;;;;5057518;28;20333;-68
2022/10/08 09:17:28;;;;;;;8.60;2.47;;;13.70;99.90;;;;;;5056832;28;20287;-68
2022/10/08 09:19:54;;;;;;;9.18;2.00;;;13.70;99.90;;;;;;5057224;28;20385;-68
2022/10/08 09:22:22;;;;;;;11.13;1.80;;;13.70;99.90;;;;;;5056662;28;20045;-68
2022/10/08 09:24:59;;;;;;;11.23;1.93;;;13.80;99.90;;;;;;5057043;28;20060;-68
2022/10/08 09:27:41;;;;;;;11.77;1.77;;;13.70;99.90;;;;;;5056861;28;20315;-68
2022/10/08 09:30:33;;;;;;;10.47;2.23;;;13.70;99.90;;;;;;5056606;28;20311;-68
2022/10/08 09:33:04;;;;;;;11.87;2.30;;;13.70;99.90;;;;;;5056770;28;20282;-68
2022/10/08 09:35:32;;;;;;;10.40;1.53;;;13.70;99.90;;;;;;5056699;28;20354;-68
2022/10/08 09:37:58;;;;;;;11.80;2.43;;;13.70;99.90;;;;;;5038953;28;20292;-68
2022/10/08 09:40:27;;;;;;;13.00;1.83;;;13.80;99.90;;;;;;5038745;28;20382;-68
2022/10/08 09:43:08;;;;;;;10.63;1.67;;;13.80;99.90;;;;;;5056539;28;20045;-68
2022/10/08 09:45:39;;;;;;;11.87;1.77;;;13.80;99.90;;;;;;5056844;28;20315;-68
2022/10/08 09:48:14;;;;;;;7.90;1.83;;;13.90;99.90;;;;;;5056253;28;20279;-68
2022/10/08 09:50:48;;;;;;;9.50;2.03;;;13.90;99.90;;;;;;5056364;28;20763;-68
2022/10/08 09:53:15;;;;;;;11.82;1.98;;;14.00;99.90;;;;;;5056196;28;20280;-68
2022/10/08 09:55:55;;;;;;;9.93;1.87;;;14.10;99.90;;;;;;5056233;28;20045;-68
2022/10/08 09:58:21;;;;;;;12.40;2.43;;;14.00;99.90;;;;;;5056034;28;20275;-68
2022/10/08 10:00:56;;;;;;;10.70;2.30;;;14.10;99.90;;;;;;5038427;28;20782;-68
2022/10/08 10:03:23;;;;;;;11.40;2.40;;;14.10;99.90;;;;;;5055866;28;20283;-68
2022/10/08 10:05:54;;;;;;;10.00;1.80;;;14.00;99.90;;;;;;5056116;28;20287;-68
2022/10/08 10:08:42;;;;;;;10.47;1.97;;;14.00;99.90;;;;;;5055648;28;20319;-68
2022/10/08 10:11:15;;;;;;;11.07;1.43;;;14.00;99.90;;;;;;5055962;28;20775;-68
2022/10/08 10:13:43;;;;;;;11.30;2.00;;;14.00;99.90;;;;;;5055832;28;20295;-68
2022/10/08 10:16:18;;;;;;;6.63;1.40;;;14.00;99.90;;;;;;5055724;28;20275;-68
2022/10/08 10:18:58;;;;;;;10.80;2.10;;;14.00;99.90;;;;;;5056021;28;20322;-68
2022/10/08 10:21:58;;;;;;;8.63;1.57;;;14.00;99.90;;;;;;5055606;28;20401;-68
2022/10/08 10:24:47;;;;;;;6.03;1.80;;;14.10;99.90;;;;;;5054593;28;20334;-67
2022/10/08 10:27:21;;;;;;;8.67;1.97;;;14.10;99.90;;;;;;5038044;28;20381;-68
2022/10/08 10:29:55;;;;;;;10.25;1.73;;;14.10;99.90;;;;;;5055562;28;20379;-68
2022/10/08 10:32:31;;;;;;;9.30;1.80;;;14.10;99.90;;;;;;5055402;28;20048;-68
2022/10/08 10:35:12;;;;;;;6.90;1.40;;;14.20;99.90;;;;;;5055598;28;20275;-68
2022/10/08 10:37:48;;;;;;;9.77;2.27;;;14.20;99.90;;;;;;5055473;28;20375;-68
2022/10/08 10:40:29;;;;;;;8.77;2.37;;;14.20;99.90;;;;;;5055337;28;20264;-68
2022/10/08 10:43:29;;;;;;;11.27;1.90;;;14.10;99.90;;;;;;5055529;28;20283;-68
2022/10/08 10:46:13;;;;;;;7.93;1.77;;;14.10;99.90;;;;;;5054949;28;20283;-68
2022/10/08 10:48:39;;;;;;;8.03;1.60;;;14.20;99.90;;;;;;5055158;28;20322;-68
2022/10/08 10:51:14;;;;;;;10.80;2.17;;;14.30;99.90;;;;;;5055193;28;20280;-68
2022/10/08 10:54:05;;;;;;;13.10;2.97;;;14.30;99.90;;;;;;5055076;28;20048;-68
2022/10/08 10:56:37;;;;;;;7.27;1.60;;;14.30;99.90;;;;;;5028165;28;20060;-68
2022/10/08 10:59:29;;;;;;;16.10;2.03;;;14.30;99.90;;;;;;5055106;28;20271;-68
2022/10/08 11:02:19;;;;;;;11.50;2.17;;;14.30;99.90;;;;;;5054526;28;20287;-68
2022/10/08 11:05:16;;;;;;;12.50;2.00;;;14.20;99.90;;;;;;5055206;28;20272;-68
2022/10/08 11:08:29;;;;;;;9.70;1.60;;;14.20;99.90;;;;;;5054909;28;20690;-68
2022/10/08 11:11:19;;;;;;;11.10;2.17;;;14.20;99.90;;;;;;5054802;28;20799;-67
2022/10/08 11:14:03;;;;;;;12.97;1.90;;;14.20;99.90;;;;;;5055012;28;20286;-68
2022/10/08 11:16:58;;;;;;;8.57;2.17;;;14.40;99.90;;;;;;5036743;28;20287;-68
2022/10/08 11:19:56;;;;;;;10.73;2.53;;;14.40;99.90;;;;;;5054567;28;20275;-68
2022/10/08 11:22:47;;;;;;;11.30;2.00;;;14.50;99.90;;;;;;5054453;28;20136;-68
2022/10/08 11:25:35;;;;;;;11.00;2.07;;;14.50;99.90;;;;;;5054043;28;20331;-68
2022/10/08 11:28:26;;;;;;;10.87;2.23;;;14.50;99.90;;;;;;5054442;28;20323;-68
2022/10/08 11:31:27;;;;;;;9.57;1.90;;;14.50;99.90;;;;;;5054020;28;20837;-68
2022/10/08 11:33:55;;;;;;;12.40;2.10;;;14.50;99.90;;;;;;5054434;28;20271;-68
2022/10/08 11:36:32;;;;;;;10.40;1.60;;;14.50;99.90;;;;;;5035543;28;20294;-68
2022/10/08 11:39:04;;;;;;;13.23;2.60;;;14.60;99.90;;;;;;5054443;28;20311;-68
2022/10/08 11:41:52;;;;;;;10.90;2.37;;;14.60;99.90;;;;;;5054024;28;20341;-68
2022/10/08 11:44:20;;;;;;;9.97;1.70;;;14.70;99.90;;;;;;5036038;28;20349;-68
2022/10/08 11:46:46;;;;;;;12.57;2.23;;;14.70;99.90;;;;;;5054081;28;20283;-68
2022/10/08 11:49:14;;;;;;;8.70;2.30;;;14.80;99.90;;;;;;5054067;28;20300;-68
2022/10/08 11:51:45;;;;;;;9.97;1.90;;;14.80;99.90;;;;;;5053893;28;20048;-68
2022/10/08 11:54:33;;;;;;;10.07;2.70;;;14.90;99.90;;;;;;5053546;28;20768;-68
2022/10/08 11:57:20;;;;;;;9.77;2.73;;;14.90;99.90;;;;;;5053758;28;20279;-68
2022/10/08 11:59:59;;;;;;;11.83;2.37;;;14.90;99.90;;;;;;5054020;28;20275;-68
2022/10/08 12:02:35;;;;;;;11.27;2.60;;;14.90;99.90;;;;;;5053603;28;20284;-68
2022/10/08 12:05:22;;;;;;;9.70;2.87;;;15.00;99.90;;;;;;5053680;28;20295;-68
2022/10/08 12:07:57;;;;;;;14.10;1.90;;;15.00;99.90;;;;;;5054029;28;20337;-68
2022/10/08 12:10:32;;;;;;;10.30;1.88;;;15.00;99.90;;;;;;5053452;28;20299;-68
2022/10/08 12:13:00;;;;;;;11.43;2.00;;;15.00;99.90;;;;;;5053521;28;20056;-68
2022/10/08 12:15:26;;;;;;;12.13;2.77;;;15.10;99.90;;;;;;5053462;28;20287;-68
2022/10/08 12:17:57;;;;;;;11.10;2.27;;;15.10;99.90;;;;;;5053464;28;20344;-68
2022/10/08 12:20:32;;;;;;;9.63;1.90;;;15.10;99.90;;;;;;5053004;28;20545;-68
2022/10/08 12:23:11;;;;;;;7.63;1.70;;;15.00;99.90;;;;;;5053464;28;20762;-68
2022/10/08 12:25:47;;;;;;;12.67;2.10;;;15.00;99.90;;;;;;5053227;28;20045;-67
2022/10/08 12:28:19;;;;;;;11.30;2.30;;;14.90;99.90;;;;;;5053519;28;20280;-68
2022/10/08 12:30:50;;;;;;;10.03;2.33;;;14.90;99.90;;;;;;5019041;28;20315;-68
2022/10/08 12:33:17;;;;;;;8.23;1.60;;;14.80;99.90;;;;;;5053228;28;20407;-68
2022/10/08 12:35:59;;;;;;;11.53;2.80;;;14.80;99.90;;;;;;5053048;28;20771;-68
2022/10/08 12:38:39;;;;;;;9.90;2.00;;;14.90;99.90;;;;;;5035400;28;20091;-68
2022/10/08 12:41:28;;;;;;;12.53;2.47;;;15.00;99.90;;;;;;5053235;28;20276;-68
2022/10/08 12:44:06;;;;;;;12.53;1.50;;;15.20;99.90;;;;;;5053257;28;20272;-68
2022/10/08 12:46:50;;;;;;;6.47;2.10;;;15.30;99.90;;;;;;5052857;28;20355;-68
2022/10/08 12:49:41;;;;;;;8.57;2.37;;;15.40;99.90;;;;;;5053006;28;20049;-68
2022/10/08 12:52:13;;;;;;;7.53;1.57;;;15.40;99.90;;;;;;5053174;28;20290;-68
2022/10/08 12:54:50;;;;;;;10.43;2.03;;;15.20;99.90;;;;;;5052821;28;20286;-68
2022/10/08 12:57:37;;;;;;;8.53;1.60;;;15.10;99.90;;;;;;5035373;28;20443;-68
2022/10/08 13:00:09;;;;;;;9.07;1.73;;;14.90;99.90;;;;;;5052999;28;20055;-68
2022/10/08 13:02:36;;;;;;;10.87;2.00;;;14.90;99.90;;;;;;5052749;28;20052;-68
2022/10/08 13:05:23;;;;;;;11.07;2.40;;;14.80;99.90;;;;;;5052863;28;20155;-68